Accueil
METAR-TAF:

METAR-TAF

Aéroports :

Base de soutien de la 5e Division du Canada Gagetown

Gagetown, Nouveau-Brunswick, Canada

latitude: 45-50N, longitude: 066-26W, altitude: 51 m

Observation

Le bulletin a été fait il y a 47 minutes, à 06:00 UTC
Vent 5 kt de sud/sud-ouest
Température -2°C
Humidité 74%
Pression 1015 hPa
Visibilité: 14.5 km
Nuages épars à une hauteur de 5100 ft

METAR: CYCX 170600Z AUTO 21005KT 9SM SCT051 M02/M06 A2997 RMK SLP152

Heure: 02:47 (06:47 UTC)


TAF: absent

Observations et prévisions météorologiques de plus de 4000 aéroports (messages METAR et TAF).

Les stations disponibles sont représentées par des disques jaunes et rouges sur la carte.

Passer la souris dessus pour voir le nom de la station.

Cliquer dessus pour voir les observations et prévisions météorologiques.

Pour changer de carte: cliquez sur les boutons verts avec une croix noire pour zoomer, sur le bouton vert avec un tiret pour effectuer un zoom arrière, ou sur les flèches vertes pour les cartes adjacentes.


METAR-TAF: